sensor_id;sensor_type;location;lat;lon;timestamp;P1;durP1;ratioP1;P2;durP2;ratioP2
55794;SDS011;41716;51.910;4.430;2023-04-24T00:01:23;1.98;;;0.90;;
55794;SDS011;41716;51.910;4.430;2023-04-24T00:06:26;3.03;;;1.10;;
55794;SDS011;41716;51.910;4.430;2023-04-24T00:11:33;3.28;;;1.42;;
55794;SDS011;41716;51.910;4.430;2023-04-24T00:16:35;2.10;;;1.25;;
55794;SDS011;41716;51.910;4.430;2023-04-24T00:21:38;3.40;;;1.65;;
55794;SDS011;41716;51.910;4.430;2023-04-24T00:26:40;3.55;;;1.20;;
55794;SDS011;41716;51.910;4.430;2023-04-24T00:31:42;1.33;;;0.50;;
55794;SDS011;41716;51.910;4.430;2023-04-24T00:36:45;1.67;;;0.60;;
55794;SDS011;41716;51.910;4.430;2023-04-24T00:41:49;1.83;;;0.50;;
55794;SDS011;41716;51.910;4.430;2023-04-24T00:46:51;1.00;;;0.40;;
55794;SDS011;41716;51.910;4.430;2023-04-24T00:51:56;0.93;;;0.60;;
55794;SDS011;41716;51.910;4.430;2023-04-24T00:56:59;1.08;;;0.70;;
55794;SDS011;41716;51.910;4.430;2023-04-24T01:02:01;2.97;;;1.00;;
55794;SDS011;41716;51.910;4.430;2023-04-24T01:07:04;3.65;;;1.67;;
55794;SDS011;41716;51.910;4.430;2023-04-24T01:12:10;1.98;;;1.10;;
55794;SDS011;41716;51.910;4.430;2023-04-24T01:17:12;2.92;;;1.63;;
55794;SDS011;41716;51.910;4.430;2023-04-24T01:22:15;3.95;;;1.63;;
55794;SDS011;41716;51.910;4.430;2023-04-24T01:27:17;1.90;;;1.10;;
55794;SDS011;41716;51.910;4.430;2023-04-24T01:32:18;3.30;;;1.08;;
55794;SDS011;41716;51.910;4.430;2023-04-24T01:42:26;1.40;;;0.80;;
55794;SDS011;41716;51.910;4.430;2023-04-24T01:47:28;3.47;;;1.00;;
55794;SDS011;41716;51.910;4.430;2023-04-24T01:52:33;3.13;;;1.00;;
55794;SDS011;41716;51.910;4.430;2023-04-24T02:02:37;1.55;;;0.60;;
55794;SDS011;41716;51.910;4.430;2023-04-24T02:07:41;0.70;;;0.50;;
55794;SDS011;41716;51.910;4.430;2023-04-24T02:12:43;0.85;;;0.50;;
55794;SDS011;41716;51.910;4.430;2023-04-24T02:17:45;1.17;;;0.70;;
55794;SDS011;41716;51.910;4.430;2023-04-24T02:22:47;0.88;;;0.60;;
55794;SDS011;41716;51.910;4.430;2023-04-24T02:27:49;0.83;;;0.60;;
55794;SDS011;41716;51.910;4.430;2023-04-24T02:32:51;0.68;;;0.52;;
55794;SDS011;41716;51.910;4.430;2023-04-24T02:37:55;1.33;;;0.50;;
55794;SDS011;41716;51.910;4.430;2023-04-24T02:42:56;0.30;;;0.30;;
55794;SDS011;41716;51.910;4.430;2023-04-24T02:47:58;0.38;;;0.30;;
55794;SDS011;41716;51.910;4.430;2023-04-24T02:53:01;0.95;;;0.35;;
55794;SDS011;41716;51.910;4.430;2023-04-24T02:58:03;0.97;;;0.20;;
55794;SDS011;41716;51.910;4.430;2023-04-24T03:03:05;0.20;;;0.20;;
55794;SDS011;41716;51.910;4.430;2023-04-24T03:08:09;0.40;;;0.20;;
55794;SDS011;41716;51.910;4.430;2023-04-24T03:13:11;0.95;;;0.22;;
55794;SDS011;41716;51.910;4.430;2023-04-24T03:18:13;0.75;;;0.30;;
55794;SDS011;41716;51.910;4.430;2023-04-24T03:23:16;0.10;;;0.10;;
55794;SDS011;41716;51.910;4.430;2023-04-24T03:28:17;0.30;;;0.22;;
55794;SDS011;41716;51.910;4.430;2023-04-24T03:33:19;0.38;;;0.17;;
55794;SDS011;41716;51.910;4.430;2023-04-24T03:38:22;2.55;;;0.50;;
55794;SDS011;41716;51.910;4.430;2023-04-24T03:43:24;1.85;;;0.60;;
55794;SDS011;41716;51.910;4.430;2023-04-24T03:48:27;1.27;;;0.20;;
55794;SDS011;41716;51.910;4.430;2023-04-24T03:53:30;1.25;;;0.30;;
55794;SDS011;41716;51.910;4.430;2023-04-24T03:58:32;1.42;;;0.40;;
55794;SDS011;41716;51.910;4.430;2023-04-24T04:03:33;1.58;;;0.47;;
55794;SDS011;41716;51.910;4.430;2023-04-24T04:08:36;1.10;;;0.15;;
55794;SDS011;41716;51.910;4.430;2023-04-24T04:13:38;1.45;;;0.20;;
55794;SDS011;41716;51.910;4.430;2023-04-24T04:18:40;2.92;;;0.73;;
55794;SDS011;41716;51.910;4.430;2023-04-24T04:23:43;2.17;;;0.85;;
55794;SDS011;41716;51.910;4.430;2023-04-24T04:28:45;3.47;;;1.30;;
55794;SDS011;41716;51.910;4.430;2023-04-24T04:33:47;2.83;;;1.20;;
55794;SDS011;41716;51.910;4.430;2023-04-24T04:38:50;3.22;;;0.82;;
55794;SDS011;41716;51.910;4.430;2023-04-24T04:43:52;1.67;;;0.65;;
55794;SDS011;41716;51.910;4.430;2023-04-24T04:48:53;2.65;;;1.02;;
55794;SDS011;41716;51.910;4.430;2023-04-24T04:53:57;3.35;;;1.52;;
55794;SDS011;41716;51.910;4.430;2023-04-24T04:58:59;4.75;;;2.20;;
55794;SDS011;41716;51.910;4.430;2023-04-24T05:04:01;7.03;;;2.40;;
55794;SDS011;41716;51.910;4.430;2023-04-24T05:09:04;3.65;;;1.73;;
55794;SDS011;41716;51.910;4.430;2023-04-24T05:14:07;4.30;;;1.90;;
55794;SDS011;41716;51.910;4.430;2023-04-24T05:19:09;6.32;;;2.30;;
55794;SDS011;41716;51.910;4.430;2023-04-24T05:24:13;5.07;;;2.30;;
55794;SDS011;41716;51.910;4.430;2023-04-24T05:29:14;4.70;;;1.90;;
55794;SDS011;41716;51.910;4.430;2023-04-24T05:34:16;9.75;;;2.47;;
55794;SDS011;41716;51.910;4.430;2023-04-24T05:39:19;6.95;;;2.58;;
55794;SDS011;41716;51.910;4.430;2023-04-24T05:44:21;5.18;;;2.63;;
55794;SDS011;41716;51.910;4.430;2023-04-24T05:49:22;5.65;;;2.40;;
55794;SDS011;41716;51.910;4.430;2023-04-24T05:54:26;4.57;;;1.70;;
55794;SDS011;41716;51.910;4.430;2023-04-24T05:59:27;8.32;;;2.40;;
55794;SDS011;41716;51.910;4.430;2023-04-24T06:04:29;5.22;;;1.45;;
55794;SDS011;41716;51.910;4.430;2023-04-24T06:09:32;5.47;;;2.00;;
55794;SDS011;41716;51.910;4.430;2023-04-24T06:14:34;8.77;;;1.60;;
55794;SDS011;41716;51.910;4.430;2023-04-24T06:19:36;8.30;;;1.75;;
55794;SDS011;41716;51.910;4.430;2023-04-24T06:24:39;4.28;;;1.13;;
55794;SDS011;41716;51.910;4.430;2023-04-24T06:29:41;8.00;;;1.77;;
55794;SDS011;41716;51.910;4.430;2023-04-24T06:34:42;9.45;;;1.90;;
55794;SDS011;41716;51.910;4.430;2023-04-24T06:39:45;6.55;;;1.88;;
55794;SDS011;41716;51.910;4.430;2023-04-24T06:44:47;4.93;;;1.70;;
55794;SDS011;41716;51.910;4.430;2023-04-24T06:49:49;9.65;;;2.05;;
55794;SDS011;41716;51.910;4.430;2023-04-24T06:54:53;6.00;;;1.58;;
55794;SDS011;41716;51.910;4.430;2023-04-24T07:00:01;8.07;;;1.73;;
55794;SDS011;41716;51.910;4.430;2023-04-24T07:05:05;5.18;;;1.17;;
55794;SDS011;41716;51.910;4.430;2023-04-24T07:10:09;3.80;;;1.00;;
55794;SDS011;41716;51.910;4.430;2023-04-24T07:15:11;8.10;;;1.07;;
55794;SDS011;41716;51.910;4.430;2023-04-24T07:20:13;9.15;;;1.65;;
55794;SDS011;41716;51.910;4.430;2023-04-24T07:25:17;5.60;;;1.23;;
55794;SDS011;41716;51.910;4.430;2023-04-24T07:30:18;4.50;;;0.63;;
55794;SDS011;41716;51.910;4.430;2023-04-24T07:35:20;10.88;;;2.55;;
55794;SDS011;41716;51.910;4.430;2023-04-24T07:40:23;3.95;;;1.00;;
55794;SDS011;41716;51.910;4.430;2023-04-24T07:45:25;4.07;;;1.17;;
55794;SDS011;41716;51.910;4.430;2023-04-24T07:50:28;4.22;;;0.98;;
55794;SDS011;41716;51.910;4.430;2023-04-24T07:55:31;6.03;;;1.10;;
55794;SDS011;41716;51.910;4.430;2023-04-24T08:00:33;5.38;;;1.33;;
55794;SDS011;41716;51.910;4.430;2023-04-24T08:05:34;6.82;;;1.48;;
55794;SDS011;41716;51.910;4.430;2023-04-24T08:10:37;5.05;;;0.90;;
55794;SDS011;41716;51.910;4.430;2023-04-24T08:15:39;4.20;;;0.90;;
55794;SDS011;41716;51.910;4.430;2023-04-24T08:20:41;5.35;;;1.00;;
55794;SDS011;41716;51.910;4.430;2023-04-24T08:25:44;5.15;;;0.60;;
55794;SDS011;41716;51.910;4.430;2023-04-24T08:30:47;2.95;;;0.70;;
55794;SDS011;41716;51.910;4.430;2023-04-24T08:35:54;4.68;;;1.20;;
55794;SDS011;41716;51.910;4.430;2023-04-24T08:40:58;6.80;;;0.80;;
55794;SDS011;41716;51.910;4.430;2023-04-24T08:46:01;5.22;;;0.70;;
55794;SDS011;41716;51.910;4.430;2023-04-24T08:51:05;3.50;;;0.70;;
55794;SDS011;41716;51.910;4.430;2023-04-24T08:56:09;2.63;;;0.95;;
55794;SDS011;41716;51.910;4.430;2023-04-24T09:01:12;2.70;;;0.43;;
55794;SDS011;41716;51.910;4.430;2023-04-24T09:06:14;3.38;;;0.38;;
55794;SDS011;41716;51.910;4.430;2023-04-24T09:11:18;2.53;;;0.35;;
55794;SDS011;41716;51.910;4.430;2023-04-24T09:16:20;1.10;;;0.32;;
55794;SDS011;41716;51.910;4.430;2023-04-24T09:21:23;2.53;;;0.43;;
55794;SDS011;41716;51.910;4.430;2023-04-24T09:26:26;1.83;;;0.38;;
55794;SDS011;41716;51.910;4.430;2023-04-24T09:31:31;2.67;;;0.30;;
55794;SDS011;41716;51.910;4.430;2023-04-24T09:36:34;1.73;;;0.43;;
55794;SDS011;41716;51.910;4.430;2023-04-24T09:41:44;0.98;;;0.20;;
55794;SDS011;41716;51.910;4.430;2023-04-24T09:46:48;0.70;;;0.20;;
55794;SDS011;41716;51.910;4.430;2023-04-24T09:51:51;0.70;;;0.15;;
55794;SDS011;41716;51.910;4.430;2023-04-24T09:57:04;1.23;;;0.40;;
55794;SDS011;41716;51.910;4.430;2023-04-24T10:02:16;2.65;;;0.50;;
55794;SDS011;41716;51.910;4.430;2023-04-24T10:07:19;2.15;;;0.40;;
55794;SDS011;41716;51.910;4.430;2023-04-24T10:12:22;2.50;;;0.40;;
55794;SDS011;41716;51.910;4.430;2023-04-24T10:17:25;1.55;;;0.40;;
55794;SDS011;41716;51.910;4.430;2023-04-24T10:22:28;1.40;;;0.30;;
55794;SDS011;41716;51.910;4.430;2023-04-24T10:27:32;1.52;;;0.28;;
55794;SDS011;41716;51.910;4.430;2023-04-24T10:32:35;3.42;;;0.60;;
55794;SDS011;41716;51.910;4.430;2023-04-24T10:37:37;2.28;;;0.60;;
55794;SDS011;41716;51.910;4.430;2023-04-24T10:42:42;2.72;;;0.40;;
55794;SDS011;41716;51.910;4.430;2023-04-24T10:47:51;6.10;;;0.60;;
55794;SDS011;41716;51.910;4.430;2023-04-24T10:53:04;2.03;;;0.40;;
55794;SDS011;41716;51.910;4.430;2023-04-24T10:58:09;3.58;;;0.45;;
55794;SDS011;41716;51.910;4.430;2023-04-24T11:03:24;1.75;;;0.55;;
55794;SDS011;41716;51.910;4.430;2023-04-24T11:08:29;4.20;;;0.50;;
55794;SDS011;41716;51.910;4.430;2023-04-24T11:19:00;1.88;;;0.30;;
55794;SDS011;41716;51.910;4.430;2023-04-24T11:29:38;1.63;;;0.30;;
55794;SDS011;41716;51.910;4.430;2023-04-24T11:34:43;2.58;;;0.40;;
55794;SDS011;41716;51.910;4.430;2023-04-24T11:39:47;1.33;;;0.40;;
55794;SDS011;41716;51.910;4.430;2023-04-24T11:44:52;2.03;;;0.40;;
55794;SDS011;41716;51.910;4.430;2023-04-24T11:49:57;2.55;;;0.60;;
55794;SDS011;41716;51.910;4.430;2023-04-24T12:00:01;3.55;;;0.60;;
55794;SDS011;41716;51.910;4.430;2023-04-24T12:05:06;3.53;;;0.50;;
55794;SDS011;41716;51.910;4.430;2023-04-24T12:10:09;3.92;;;0.70;;
55794;SDS011;41716;51.910;4.430;2023-04-24T12:15:11;4.47;;;0.80;;
55794;SDS011;41716;51.910;4.430;2023-04-24T12:20:14;4.25;;;0.70;;
55794;SDS011;41716;51.910;4.430;2023-04-24T12:25:16;4.00;;;0.90;;
55794;SDS011;41716;51.910;4.430;2023-04-24T12:30:19;4.23;;;0.90;;
55794;SDS011;41716;51.910;4.430;2023-04-24T12:35:23;6.72;;;1.30;;
55794;SDS011;41716;51.910;4.430;2023-04-24T12:40:27;2.60;;;0.60;;
55794;SDS011;41716;51.910;4.430;2023-04-24T12:45:30;3.30;;;0.82;;
55794;SDS011;41716;51.910;4.430;2023-04-24T12:50:33;2.75;;;0.70;;
55794;SDS011;41716;51.910;4.430;2023-04-24T12:55:35;3.92;;;1.08;;
55794;SDS011;41716;51.910;4.430;2023-04-24T13:00:37;4.80;;;0.90;;
55794;SDS011;41716;51.910;4.430;2023-04-24T13:05:41;5.43;;;1.38;;
55794;SDS011;41716;51.910;4.430;2023-04-24T13:10:43;6.80;;;0.93;;
55794;SDS011;41716;51.910;4.430;2023-04-24T13:15:45;5.03;;;1.45;;
55794;SDS011;41716;51.910;4.430;2023-04-24T13:20:48;5.88;;;1.38;;
55794;SDS011;41716;51.910;4.430;2023-04-24T13:25:50;3.85;;;0.90;;
55794;SDS011;41716;51.910;4.430;2023-04-24T13:30:52;4.80;;;1.63;;
55794;SDS011;41716;51.910;4.430;2023-04-24T13:35:55;3.65;;;1.15;;
55794;SDS011;41716;51.910;4.430;2023-04-24T13:40:56;5.80;;;1.23;;
55794;SDS011;41716;51.910;4.430;2023-04-24T13:45:58;7.93;;;1.63;;
55794;SDS011;41716;51.910;4.430;2023-04-24T13:51:04;9.20;;;1.50;;
55794;SDS011;41716;51.910;4.430;2023-04-24T13:56:06;7.70;;;1.43;;
55794;SDS011;41716;51.910;4.430;2023-04-24T14:01:08;2.22;;;1.00;;
55794;SDS011;41716;51.910;4.430;2023-04-24T14:06:11;3.22;;;0.90;;
55794;SDS011;41716;51.910;4.430;2023-04-24T14:11:13;5.43;;;1.25;;
55794;SDS011;41716;51.910;4.430;2023-04-24T14:16:15;8.13;;;1.50;;
55794;SDS011;41716;51.910;4.430;2023-04-24T14:21:18;5.97;;;1.23;;
55794;SDS011;41716;51.910;4.430;2023-04-24T14:26:20;8.65;;;1.40;;
55794;SDS011;41716;51.910;4.430;2023-04-24T14:31:22;8.60;;;2.10;;
55794;SDS011;41716;51.910;4.430;2023-04-24T14:36:25;8.63;;;3.05;;
55794;SDS011;41716;51.910;4.430;2023-04-24T14:41:26;5.32;;;1.48;;
55794;SDS011;41716;51.910;4.430;2023-04-24T14:46:28;7.53;;;1.65;;
55794;SDS011;41716;51.910;4.430;2023-04-24T14:51:31;7.60;;;1.40;;
55794;SDS011;41716;51.910;4.430;2023-04-24T14:56:33;8.48;;;1.40;;
55794;SDS011;41716;51.910;4.430;2023-04-24T15:01:34;8.57;;;2.78;;
55794;SDS011;41716;51.910;4.430;2023-04-24T15:06:37;3.47;;;1.20;;
55794;SDS011;41716;51.910;4.430;2023-04-24T15:11:39;9.88;;;2.10;;
55794;SDS011;41716;51.910;4.430;2023-04-24T15:16:42;5.45;;;1.20;;
55794;SDS011;41716;51.910;4.430;2023-04-24T15:21:46;7.43;;;1.70;;
55794;SDS011;41716;51.910;4.430;2023-04-24T15:26:47;8.00;;;1.60;;
55794;SDS011;41716;51.910;4.430;2023-04-24T15:31:49;7.40;;;1.85;;
55794;SDS011;41716;51.910;4.430;2023-04-24T15:36:52;8.13;;;2.08;;
55794;SDS011;41716;51.910;4.430;2023-04-24T15:41:54;5.07;;;1.50;;
55794;SDS011;41716;51.910;4.430;2023-04-24T15:46:56;10.35;;;2.03;;
55794;SDS011;41716;51.910;4.430;2023-04-24T15:52:03;6.90;;;1.77;;
55794;SDS011;41716;51.910;4.430;2023-04-24T15:57:04;6.57;;;1.60;;
55794;SDS011;41716;51.910;4.430;2023-04-24T16:02:06;3.92;;;1.50;;
55794;SDS011;41716;51.910;4.430;2023-04-24T16:07:12;6.65;;;1.50;;
55794;SDS011;41716;51.910;4.430;2023-04-24T16:12:14;6.72;;;1.80;;
55794;SDS011;41716;51.910;4.430;2023-04-24T16:17:16;6.72;;;1.83;;
55794;SDS011;41716;51.910;4.430;2023-04-24T16:22:19;5.88;;;1.40;;
55794;SDS011;41716;51.910;4.430;2023-04-24T16:27:21;5.35;;;1.75;;
55794;SDS011;41716;51.910;4.430;2023-04-24T16:32:22;5.05;;;1.30;;
55794;SDS011;41716;51.910;4.430;2023-04-24T16:37:26;6.65;;;1.77;;
55794;SDS011;41716;51.910;4.430;2023-04-24T16:42:29;3.60;;;1.27;;
55794;SDS011;41716;51.910;4.430;2023-04-24T16:47:31;7.10;;;1.42;;
55794;SDS011;41716;51.910;4.430;2023-04-24T16:52:34;10.77;;;3.33;;
55794;SDS011;41716;51.910;4.430;2023-04-24T16:57:36;7.22;;;1.10;;
55794;SDS011;41716;51.910;4.430;2023-04-24T17:02:38;3.63;;;1.13;;
55794;SDS011;41716;51.910;4.430;2023-04-24T17:07:41;7.72;;;1.38;;
55794;SDS011;41716;51.910;4.430;2023-04-24T17:12:43;7.40;;;1.65;;
55794;SDS011;41716;51.910;4.430;2023-04-24T17:17:44;3.97;;;1.38;;
55794;SDS011;41716;51.910;4.430;2023-04-24T17:22:47;4.70;;;1.00;;
55794;SDS011;41716;51.910;4.430;2023-04-24T17:27:49;4.63;;;1.30;;
55794;SDS011;41716;51.910;4.430;2023-04-24T17:32:51;5.25;;;1.15;;
55794;SDS011;41716;51.910;4.430;2023-04-24T17:37:54;6.38;;;1.30;;
55794;SDS011;41716;51.910;4.430;2023-04-24T17:42:56;5.20;;;1.08;;
55794;SDS011;41716;51.910;4.430;2023-04-24T17:47:58;5.25;;;0.80;;
55794;SDS011;41716;51.910;4.430;2023-04-24T17:53:01;4.13;;;1.17;;
55794;SDS011;41716;51.910;4.430;2023-04-24T17:58:02;7.65;;;1.38;;
55794;SDS011;41716;51.910;4.430;2023-04-24T18:03:04;5.97;;;1.30;;
55794;SDS011;41716;51.910;4.430;2023-04-24T18:08:09;6.03;;;1.20;;
55794;SDS011;41716;51.910;4.430;2023-04-24T18:13:10;4.88;;;1.50;;
55794;SDS011;41716;51.910;4.430;2023-04-24T18:18:12;4.57;;;1.38;;
55794;SDS011;41716;51.910;4.430;2023-04-24T18:23:15;3.45;;;0.90;;
55794;SDS011;41716;51.910;4.430;2023-04-24T18:28:17;4.47;;;0.95;;
55794;SDS011;41716;51.910;4.430;2023-04-24T18:33:19;4.32;;;0.90;;
55794;SDS011;41716;51.910;4.430;2023-04-24T18:38:21;5.10;;;0.98;;
55794;SDS011;41716;51.910;4.430;2023-04-24T18:43:24;2.88;;;1.00;;
55794;SDS011;41716;51.910;4.430;2023-04-24T18:48:26;4.95;;;0.80;;
55794;SDS011;41716;51.910;4.430;2023-04-24T18:53:31;5.45;;;1.23;;
55794;SDS011;41716;51.910;4.430;2023-04-24T18:58:33;3.78;;;1.13;;
55794;SDS011;41716;51.910;4.430;2023-04-24T19:03:34;3.47;;;0.77;;
55794;SDS011;41716;51.910;4.430;2023-04-24T19:08:37;2.55;;;0.80;;
55794;SDS011;41716;51.910;4.430;2023-04-24T19:13:41;1.95;;;0.77;;
55794;SDS011;41716;51.910;4.430;2023-04-24T19:18:43;3.22;;;0.68;;
55794;SDS011;41716;51.910;4.430;2023-04-24T19:23:46;3.05;;;0.63;;
55794;SDS011;41716;51.910;4.430;2023-04-24T19:28:49;3.67;;;0.90;;
55794;SDS011;41716;51.910;4.430;2023-04-24T19:33:52;1.58;;;0.52;;
55794;SDS011;41716;51.910;4.430;2023-04-24T19:38:55;3.60;;;0.85;;
55794;SDS011;41716;51.910;4.430;2023-04-24T19:43:57;8.93;;;1.20;;
55794;SDS011;41716;51.910;4.430;2023-04-24T19:48:58;5.70;;;1.23;;
55794;SDS011;41716;51.910;4.430;2023-04-24T19:54:01;5.95;;;1.17;;
55794;SDS011;41716;51.910;4.430;2023-04-24T19:59:05;5.25;;;1.02;;
55794;SDS011;41716;51.910;4.430;2023-04-24T20:04:07;5.20;;;1.13;;
55794;SDS011;41716;51.910;4.430;2023-04-24T20:09:11;5.57;;;0.98;;
55794;SDS011;41716;51.910;4.430;2023-04-24T20:14:13;3.35;;;0.70;;
55794;SDS011;41716;51.910;4.430;2023-04-24T20:19:15;4.40;;;1.02;;
55794;SDS011;41716;51.910;4.430;2023-04-24T20:24:18;4.03;;;0.80;;
55794;SDS011;41716;51.910;4.430;2023-04-24T20:29:19;3.25;;;0.90;;
55794;SDS011;41716;51.910;4.430;2023-04-24T20:34:21;5.15;;;0.70;;
55794;SDS011;41716;51.910;4.430;2023-04-24T20:39:24;5.13;;;1.00;;
55794;SDS011;41716;51.910;4.430;2023-04-24T20:44:26;4.20;;;0.75;;
55794;SDS011;41716;51.910;4.430;2023-04-24T20:49:27;2.80;;;1.00;;
55794;SDS011;41716;51.910;4.430;2023-04-24T20:54:30;4.05;;;0.90;;
55794;SDS011;41716;51.910;4.430;2023-04-24T20:59:32;4.18;;;1.08;;
55794;SDS011;41716;51.910;4.430;2023-04-24T21:04:34;3.72;;;0.93;;
55794;SDS011;41716;51.910;4.430;2023-04-24T21:09:40;3.13;;;0.90;;
55794;SDS011;41716;51.910;4.430;2023-04-24T21:14:42;3.78;;;0.80;;
55794;SDS011;41716;51.910;4.430;2023-04-24T21:19:43;3.03;;;0.80;;
55794;SDS011;41716;51.910;4.430;2023-04-24T21:24:46;4.70;;;0.85;;
55794;SDS011;41716;51.910;4.430;2023-04-24T21:29:48;7.20;;;1.23;;
55794;SDS011;41716;51.910;4.430;2023-04-24T21:34:50;2.72;;;0.75;;
55794;SDS011;41716;51.910;4.430;2023-04-24T21:39:53;3.10;;;0.80;;
55794;SDS011;41716;51.910;4.430;2023-04-24T21:44:55;5.55;;;1.02;;
55794;SDS011;41716;51.910;4.430;2023-04-24T21:49:56;3.30;;;0.70;;
55794;SDS011;41716;51.910;4.430;2023-04-24T21:54:59;3.63;;;0.90;;
55794;SDS011;41716;51.910;4.430;2023-04-24T22:00:01;5.85;;;0.80;;
55794;SDS011;41716;51.910;4.430;2023-04-24T22:05:05;4.32;;;0.88;;
55794;SDS011;41716;51.910;4.430;2023-04-24T22:10:10;9.43;;;1.20;;
55794;SDS011;41716;51.910;4.430;2023-04-24T22:15:12;6.82;;;1.05;;
55794;SDS011;41716;51.910;4.430;2023-04-24T22:20:14;6.57;;;1.20;;
55794;SDS011;41716;51.910;4.430;2023-04-24T22:25:18;6.93;;;1.25;;
55794;SDS011;41716;51.910;4.430;2023-04-24T22:30:20;3.75;;;1.20;;
55794;SDS011;41716;51.910;4.430;2023-04-24T22:35:21;4.32;;;1.10;;
55794;SDS011;41716;51.910;4.430;2023-04-24T22:40:24;6.70;;;0.98;;
55794;SDS011;41716;51.910;4.430;2023-04-24T22:45:26;5.07;;;1.38;;
55794;SDS011;41716;51.910;4.430;2023-04-24T22:50:28;8.07;;;1.20;;
55794;SDS011;41716;51.910;4.430;2023-04-24T22:55:31;6.28;;;1.25;;
55794;SDS011;41716;51.910;4.430;2023-04-24T23:00:33;7.17;;;1.73;;
55794;SDS011;41716;51.910;4.430;2023-04-24T23:05:35;9.32;;;1.60;;
55794;SDS011;41716;51.910;4.430;2023-04-24T23:10:38;6.68;;;1.42;;
55794;SDS011;41716;51.910;4.430;2023-04-24T23:15:39;7.90;;;1.33;;
55794;SDS011;41716;51.910;4.430;2023-04-24T23:20:41;5.07;;;1.50;;
55794;SDS011;41716;51.910;4.430;2023-04-24T23:25:44;7.15;;;1.30;;
55794;SDS011;41716;51.910;4.430;2023-04-24T23:30:46;7.47;;;1.60;;
55794;SDS011;41716;51.910;4.430;2023-04-24T23:35:47;6.35;;;1.52;;
55794;SDS011;41716;51.910;4.430;2023-04-24T23:40:51;7.68;;;2.20;;
55794;SDS011;41716;51.910;4.430;2023-04-24T23:45:53;8.85;;;1.42;;
55794;SDS011;41716;51.910;4.430;2023-04-24T23:50:54;6.35;;;1.58;;
55794;SDS011;41716;51.910;4.430;2023-04-24T23:55:57;6.90;;;1.15;;
